Flight Track Log - Related Links

Times and Time Zones

All times are in EST time to prevent confusion due to time zone crossing. See the CPT7773 flight status page for this flight to view local times or setup timezone preferences in your user account.


Time Position Orientation Groundspeed Altitude Reporting Facility
EST Latitude Longitude Course Direction KTS MPH feet Rate Location/Type
Tue 08:13:19 PM 44.4883 -108.9247 121° Southeast 128 147 7,800  Level Salt Lake Center
Tue 08:14:20 PM 44.4622 -108.8828 131° Southeast 135 155 8,900 1,073 Climbing Salt Lake Center
Tue 08:15:22 PM 44.4289 -108.8306 132° Southeast 142 163 10,000 1,024 Climbing Salt Lake Center
Tue 08:16:23 PM 44.3994 -108.7808 130° Southeast 153 176 11,000 927 Climbing Salt Lake Center
Tue 08:17:25 PM 44.3711 -108.7339 130° Southeast 157 181 11,900 829 Climbing Salt Lake Center
Tue 08:18:00 PM 44.4005 -108.7457 121° Southeast  Level FlightAware Approximate
Tue 08:18:26 PM 44.3425 -108.6867 130° Southeast 159 183 12,700  Level Salt Lake Center
Tue 08:19:28 PM 44.3117 -108.6378 131° Southeast 162 186 13,000 146 Climbing Salt Lake Center
Tue 08:20:29 PM 44.2753 -108.5814 132° Southeast 174 200 13,000  Level Salt Lake Center
Tue 08:21:31 PM 44.2353 -108.5217 133° Southeast 192 221 13,000  Level Salt Lake Center
Tue 08:22:32 PM 44.1892 -108.4481 131° Southeast 204 235 13,000  Level Salt Lake Center
Tue 08:23:34 PM 44.1511 -108.3872 131° Southeast 207 238 13,000  Level Salt Lake Center
Tue 08:24:36 PM 44.1117 -108.3264 132° Southeast 209 241 13,000  Level Salt Lake Center
Tue 08:25:36 PM 44.0739 -108.2661 131° Southeast 210 242 13,000  Level Salt Lake Center
Tue 08:26:38 PM 44.0347 -108.2044 131° Southeast 211 243 13,000  Level Salt Lake Center
Tue 08:27:39 PM 43.9961 -108.1431 131° Southeast 211 243 13,000  Level Salt Lake Center
Tue 08:28:41 PM 43.9583 -108.0836 131° Southeast 210 242 13,000  Level Salt Lake Center
Tue 08:29:42 PM 43.9203 -108.0242 132° Southeast 208 239 13,000  Level Salt Lake Center
Tue 08:30:44 PM 43.8744 -107.9536 132° Southeast 207 238 13,000  Level Salt Lake Center
Tue 08:31:45 PM 43.8375 -107.8942 131° Southeast 206 237 13,000  Level Salt Lake Center
Tue 08:32:47 PM 43.8003 -107.8361 132° Southeast 204 235 13,000  Level Salt Lake Center
Tue 08:33:48 PM 43.7631 -107.7769 131° Southeast 204 235 13,000  Level Salt Lake Center
Tue 08:34:50 PM 43.7233 -107.7178 133° Southeast 207 238 13,000  Level Salt Lake Center
Tue 08:35:51 PM 43.6847 -107.6578 132° Southeast 208 239 13,000  Level Salt Lake Center
Tue 08:36:53 PM 43.6458 -107.5975 132° Southeast 209 241 13,000  Level Salt Lake Center
Tue 08:37:54 PM 43.6078 -107.5375 131° Southeast 209 241 13,000  Level Salt Lake Center
Tue 08:38:56 PM 43.5617 -107.4664 132° Southeast 209 241 13,000  Level Salt Lake Center
Tue 08:39:57 PM 43.5231 -107.4039 130° Southeast 210 242 13,000  Level Salt Lake Center
Tue 08:40:58 PM 43.4831 -107.3461 134° Southeast 211 243 13,000  Level Salt Lake Center
Tue 08:42:00 PM 43.4444 -107.2850 131° Southeast 212 244 13,000  Level Salt Lake Center
Tue 08:43:01 PM 43.4047 -107.2242 132° Southeast 214 246 13,000  Level Salt Lake Center
Tue 08:44:03 PM 43.3658 -107.1656 132° Southeast 210 242 13,000  Level Salt Lake Center
Tue 08:45:04 PM 43.3264 -107.1061 132° Southeast 211 243 13,000 49 Level Salt Lake Center
Tue 08:46:06 PM 43.2883 -107.0467 131° Southeast 210 242 13,100  Climbing Salt Lake Center
Tue 08:47:07 PM 43.2439 -106.9767 131° Southeast 204 235 13,000 -244 Descending Salt Lake Center
Tue 08:48:09 PM 43.2047 -106.9156 131° Southeast 210 242 12,600 -537 Descending Salt Lake Center
Tue 08:49:10 PM 43.1644 -106.8567 133° Southeast 218 251 11,900 -829 Descending Salt Lake Center
Tue 08:50:12 PM 43.1189 -106.7878 132° Southeast 218 251 10,900 -824 Descending Salt Lake Center
Tue 08:51:21 PM 43.0803 -106.7167 127° Southeast 210 242 10,100 -779 Descending Denver Center
Tue 08:52:23 PM 43.0478 -106.6592 128° Southeast 204 235 9,200 -919 Descending Denver Center
Tue 08:53:25 PM 43.0119 -106.5925 126° Southeast 199 229 8,200 -871 Descending Denver Center
Tue 08:54:27 PM 42.9822 -106.5406 128° Southeast 190 219 7,400 -732 Descending Denver Center
Tue 08:55:28 PM 42.9525 -106.4872 127° Southeast 171 197 6,700 -488 Descending Denver Center
Tue 08:56:30 PM 42.9297 -106.4447 126° Southeast 160 184 6,400 -290 Descending Denver Center
Tue 08:58:00 PM 42.9000 -106.4500 124° Southeast  Level FlightAware Approximate

Login

Don't have an account? Register now (free) for customized features, flight alerts, and more!